createdAt,value
2023-05-15T00:01:50.581Z,99979.02
2023-05-15T00:04:20.855Z,99972.98
2023-05-15T00:06:49.788Z,99971.39
2023-05-15T00:09:18.572Z,99972.39
2023-05-15T00:11:47.363Z,99965.77
2023-05-15T00:14:16.523Z,99963.34
2023-05-15T00:16:46.040Z,99959.80
2023-05-15T00:19:15.978Z,99959.11
2023-05-15T00:21:45.527Z,99959.27
2023-05-15T00:24:15.115Z,99954.81
2023-05-15T00:26:44.053Z,99954.55
2023-05-15T00:29:12.897Z,99951.16
2023-05-15T00:31:43.238Z,99950.95
2023-05-15T00:34:12.133Z,99950.37
2023-05-15T00:36:41.364Z,99945.77
2023-05-15T00:39:12.199Z,99942.00
2023-05-15T00:41:41.533Z,99939.35
2023-05-15T00:44:12.098Z,99937.92
2023-05-15T00:46:41.230Z,99933.63
2023-05-15T00:49:13.880Z,99935.23
2023-05-15T00:51:44.563Z,99933.36
2023-05-15T00:54:15.355Z,99935.22
2023-05-15T00:56:45.425Z,99932.52
2023-05-15T00:59:14.188Z,99925.79
2023-05-15T01:01:45.591Z,99926.90
2023-05-15T01:04:14.571Z,99917.85
2023-05-15T01:06:44.896Z,99923.73
2023-05-15T01:09:15.527Z,99917.89
2023-05-15T01:11:45.255Z,99918.48
2023-05-15T01:14:14.329Z,99916.10
2023-05-15T01:16:43.030Z,99913.77
2023-05-15T01:19:13.966Z,99912.65
2023-05-15T01:21:48.762Z,99904.55
2023-05-15T01:24:34.178Z,99900.10
2023-05-15T01:27:08.393Z,99893.73
2023-05-15T01:30:03.797Z,99890.52
2023-05-15T01:32:39.283Z,99893.00
2023-05-15T01:35:11.481Z,99890.60
2023-05-15T01:37:44.508Z,99890.71
2023-05-15T01:40:15.593Z,99883.84
2023-05-15T01:42:48.973Z,99884.39
2023-05-15T01:45:18.695Z,99884.65
2023-05-15T01:47:49.054Z,99877.55
2023-05-15T01:50:20.644Z,99870.23
2023-05-15T01:52:56.179Z,99867.38
2023-05-15T01:55:28.393Z,99857.37
2023-05-15T01:58:00.296Z,99853.70
2023-05-15T02:00:30.918Z,99855.73
2023-05-15T02:03:02.377Z,99853.98
2023-05-15T02:05:31.585Z,99852.44
2023-05-15T02:08:01.224Z,99847.61
2023-05-15T02:10:31.217Z,99848.73
2023-05-15T02:13:00.920Z,99850.48
2023-05-15T02:15:31.176Z,99839.19
2023-05-15T02:18:00.486Z,99841.67
2023-05-15T02:20:31.149Z,99834.53
2023-05-15T02:23:00.428Z,99836.54
2023-05-15T02:25:42.236Z,99830.92
2023-05-15T02:28:18.277Z,99825.04
2023-05-15T02:30:53.648Z,99821.48
2023-05-15T02:33:28.172Z,99817.58
2023-05-15T02:36:04.006Z,99820.33
2023-05-15T02:38:39.621Z,99814.92
2023-05-15T02:41:08.654Z,99808.30
2023-05-15T02:43:38.748Z,99802.90
2023-05-15T02:46:08.610Z,99804.17
2023-05-15T02:48:40.160Z,99797.61
2023-05-15T02:51:09.678Z,99788.89
2023-05-15T02:53:42.035Z,99784.27
2023-05-15T02:56:12.744Z,99781.94
2023-05-15T02:58:41.907Z,99778.27
2023-05-15T03:01:12.840Z,99769.36
2023-05-15T03:03:43.154Z,99767.24
2023-05-15T03:06:12.582Z,99761.63
2023-05-15T03:08:42.861Z,99760.84
2023-05-15T03:11:11.516Z,99762.73
2023-05-15T03:13:41.511Z,99757.13
2023-05-15T03:16:10.431Z,99749.66
2023-05-15T03:18:39.465Z,99746.38
2023-05-15T03:21:08.158Z,99746.65
2023-05-15T03:23:38.197Z,99756.45
2023-05-15T03:26:11.156Z,99747.02
2023-05-15T03:28:42.180Z,99736.95
2023-05-15T03:31:14.774Z,99739.03
2023-05-15T03:33:50.202Z,99734.84
2023-05-15T03:36:19.655Z,99739.72
2023-05-15T03:38:48.644Z,99736.16
2023-05-15T03:41:18.791Z,99735.84
2023-05-15T03:43:47.570Z,99727.20
2023-05-15T03:46:20.193Z,99724.30
2023-05-15T03:48:50.653Z,99725.84
2023-05-15T03:51:21.185Z,99725.56
2023-05-15T03:53:50.168Z,99728.20
2023-05-15T03:56:19.398Z,99731.27
2023-05-15T03:58:48.988Z,99727.73
2023-05-15T04:01:18.755Z,99731.48
2023-05-15T04:03:47.818Z,99728.15
2023-05-15T04:06:17.426Z,99724.23
2023-05-15T04:08:47.907Z,99721.42
2023-05-15T04:11:19.657Z,99709.24
2023-05-15T04:13:48.970Z,99714.17
2023-05-15T04:16:17.702Z,99711.27
2023-05-15T04:18:46.490Z,99711.84
2023-05-15T04:21:17.496Z,99716.23
2023-05-15T04:23:46.299Z,99720.67
2023-05-15T04:26:15.611Z,99719.27
2023-05-15T04:28:52.444Z,99720.02
2023-05-15T04:31:32.987Z,99717.27
2023-05-15T04:34:01.903Z,99713.11
2023-05-15T04:36:30.663Z,99710.77
2023-05-15T04:39:00.009Z,99696.83
2023-05-15T04:41:30.220Z,99691.52
2023-05-15T04:44:00.130Z,99689.36
2023-05-15T04:46:30.244Z,99685.48
2023-05-15T04:48:59.777Z,99683.14
2023-05-15T04:51:29.821Z,99676.98
2023-05-15T04:53:58.697Z,99667.65
2023-05-15T04:56:28.510Z,99665.67
2023-05-15T04:58:57.297Z,99661.17
2023-05-15T05:01:27.763Z,99657.82
2023-05-15T05:03:56.875Z,99655.73
2023-05-15T05:06:27.002Z,99655.13
2023-05-15T05:08:58.723Z,99661.26
2023-05-15T05:11:30.381Z,99662.44
2023-05-15T05:14:00.979Z,99667.17
2023-05-15T05:16:30.304Z,99671.16
2023-05-15T05:19:01.723Z,99665.69
2023-05-15T05:21:34.178Z,99672.08
2023-05-15T05:24:02.951Z,99673.27
2023-05-15T05:26:31.870Z,99682.38
2023-05-15T05:29:00.561Z,99686.88
2023-05-15T05:31:30.961Z,99691.21
2023-05-15T05:34:01.733Z,99693.79
2023-05-15T05:36:30.690Z,99684.05
2023-05-15T05:38:59.554Z,99692.33
2023-05-15T05:41:28.380Z,99693.58
2023-05-15T05:43:59.929Z,99685.67
2023-05-15T05:46:30.257Z,99688.63
2023-05-15T05:49:00.007Z,99697.77
2023-05-15T05:51:29.210Z,99686.23
2023-05-15T05:54:02.297Z,99676.70
2023-05-15T05:56:34.794Z,99679.38
2023-05-15T05:59:04.329Z,99665.86
2023-05-15T06:01:33.326Z,99674.81
2023-05-15T06:04:02.267Z,99661.91
2023-05-15T06:06:31.366Z,99679.20
2023-05-15T06:09:00.737Z,99657.98
2023-05-15T06:11:29.673Z,99660.72
2023-05-15T06:13:58.441Z,99661.88
2023-05-15T06:16:27.312Z,99662.20
2023-05-15T06:18:56.575Z,99665.17
2023-05-15T06:21:25.679Z,99655.71
2023-05-15T06:23:55.137Z,99655.39
2023-05-15T06:26:25.096Z,99664.05
2023-05-15T06:28:54.660Z,99674.05
2023-05-15T06:31:25.805Z,99674.81
2023-05-15T06:33:55.667Z,99681.99
2023-05-15T06:36:25.540Z,99668.48
2023-05-15T06:38:55.102Z,99660.54
2023-05-15T06:41:25.684Z,99671.85
2023-05-15T06:43:55.797Z,99671.46
2023-05-15T06:46:25.973Z,99659.67
2023-05-15T06:48:55.111Z,99661.39
2023-05-15T06:51:24.030Z,99660.95
2023-05-15T06:53:52.740Z,99658.04
2023-05-15T06:56:22.336Z,99659.05
2023-05-15T06:58:52.339Z,99656.45
2023-05-15T07:01:21.399Z,99645.73
2023-05-15T07:03:50.441Z,99647.02
2023-05-15T07:06:19.307Z,99637.52
2023-05-15T07:08:48.565Z,99625.96
2023-05-15T07:11:17.784Z,99631.20
2023-05-15T07:13:47.126Z,99636.02
2023-05-15T07:16:17.220Z,99632.39
2023-05-15T07:18:48.277Z,99635.56
2023-05-15T07:21:24.162Z,99625.85
2023-05-15T07:23:54.416Z,99618.57
2023-05-15T07:26:34.171Z,99611.94
2023-05-15T07:29:07.885Z,99601.25
2023-05-15T07:32:08.524Z,99591.13
2023-05-15T07:34:37.678Z,99575.60
2023-05-15T07:37:07.395Z,99569.45
2023-05-15T07:39:36.852Z,99563.42
2023-05-15T07:42:06.710Z,99560.46
2023-05-15T07:44:37.096Z,99560.11
2023-05-15T07:47:06.950Z,99564.36
2023-05-15T07:49:40.105Z,99570.20
2023-05-15T07:52:09.278Z,99576.91
2023-05-15T07:54:41.967Z,99580.73
2023-05-15T07:57:11.203Z,99580.42
2023-05-15T07:59:42.346Z,99579.03
2023-05-15T08:02:12.106Z,99583.44
2023-05-15T08:04:42.131Z,99581.45
2023-05-15T08:07:15.571Z,99584.05
2023-05-15T08:09:45.389Z,99587.77
2023-05-15T08:12:18.333Z,99578.48
2023-05-15T08:14:51.712Z,99572.20
2023-05-15T08:17:23.993Z,99575.02
2023-05-15T08:19:53.260Z,99564.23
2023-05-15T08:22:24.138Z,99560.33
2023-05-15T08:24:53.538Z,99548.59
2023-05-15T08:27:22.945Z,99548.80
2023-05-15T08:29:54.451Z,99556.00
2023-05-15T08:32:24.640Z,99547.48
2023-05-15T08:34:54.145Z,99538.66
2023-05-15T08:37:24.196Z,99534.86
2023-05-15T08:39:53.666Z,99542.27
2023-05-15T08:42:25.567Z,99542.64
2023-05-15T08:44:57.816Z,99520.44
2023-05-15T08:47:37.809Z,99512.97
2023-05-15T08:50:09.784Z,99512.44
2023-05-15T08:52:43.200Z,99512.85
2023-05-15T08:55:20.001Z,99505.71
2023-05-15T08:57:52.401Z,99507.41
2023-05-15T09:00:24.361Z,99506.41
2023-05-15T09:02:54.823Z,99503.82
2023-05-15T09:05:28.043Z,99491.70
2023-05-15T09:07:57.658Z,99486.10
2023-05-15T09:10:26.641Z,99483.99
2023-05-15T09:12:57.981Z,99488.80
2023-05-15T09:15:28.791Z,99488.42
2023-05-15T09:17:58.547Z,99482.38
2023-05-15T09:20:35.370Z,99472.65
2023-05-15T09:23:06.805Z,99476.04
2023-05-15T09:25:36.114Z,99473.59
2023-05-15T09:28:11.967Z,99467.67
2023-05-15T09:30:47.893Z,99477.64
2023-05-15T09:33:17.720Z,99485.48
2023-05-15T09:35:46.499Z,99476.02
2023-05-15T09:38:15.839Z,99471.79
2023-05-15T09:40:44.572Z,99473.54
2023-05-15T09:43:16.661Z,99468.21
2023-05-15T09:45:48.831Z,99460.67
2023-05-15T09:48:18.668Z,99455.98
2023-05-15T09:50:52.900Z,99452.92
2023-05-15T09:53:23.555Z,99448.54
2023-05-15T09:55:53.540Z,99453.28
2023-05-15T09:58:26.503Z,99451.27
2023-05-15T10:00:59.700Z,99452.70
2023-05-15T10:03:29.643Z,99451.42
2023-05-15T10:06:00.304Z,99446.00
2023-05-15T10:08:30.239Z,99446.40
2023-05-15T10:11:01.214Z,99443.63
2023-05-15T10:13:34.021Z,99443.35
2023-05-15T10:16:05.186Z,99440.31
2023-05-15T10:18:36.584Z,99438.38
2023-05-15T10:21:06.947Z,99432.10
2023-05-15T10:23:40.058Z,99426.67
2023-05-15T10:26:14.640Z,99422.63
2023-05-15T10:28:44.962Z,99422.14
2023-05-15T10:31:19.420Z,99419.02
2023-05-15T10:33:51.323Z,99414.20
2023-05-15T10:36:22.745Z,99409.30
2023-05-15T10:38:54.826Z,99408.27
2023-05-15T10:41:27.207Z,99410.04
2023-05-15T10:43:59.600Z,99405.90
2023-05-15T10:46:29.528Z,99409.91
2023-05-15T10:49:02.306Z,99408.23
2023-05-15T10:51:34.164Z,99408.88
2023-05-15T10:54:06.517Z,99405.05
2023-05-15T10:56:37.818Z,99404.64
2023-05-15T10:59:08.524Z,99394.15
2023-05-15T11:01:41.071Z,99392.80
2023-05-15T11:04:18.565Z,99389.80
2023-05-15T11:06:50.521Z,99385.85
2023-05-15T11:09:23.130Z,99391.09
2023-05-15T11:11:52.783Z,99386.02
2023-05-15T11:14:25.780Z,99380.30
2023-05-15T11:16:56.867Z,99375.69
2023-05-15T11:19:51.431Z,99382.52
2023-05-15T11:22:22.776Z,99384.86
2023-05-15T11:24:56.154Z,99381.48
2023-05-15T11:27:47.941Z,99372.89
2023-05-15T11:30:44.410Z,99369.45
2023-05-15T11:33:14.341Z,99360.97
2023-05-15T11:35:48.763Z,99352.27
2023-05-15T11:38:18.886Z,99348.52
2023-05-15T11:40:54.115Z,99348.48
2023-05-15T11:43:27.781Z,99346.82
2023-05-15T11:45:59.404Z,99338.65
2023-05-15T11:48:31.877Z,99341.14
2023-05-15T11:51:01.651Z,99345.41
2023-05-15T11:53:31.352Z,99335.80
2023-05-15T11:56:01.164Z,99339.48
2023-05-15T11:58:31.395Z,99333.88
2023-05-15T12:01:04.606Z,99334.77
2023-05-15T12:03:37.816Z,99336.63
2023-05-15T12:06:07.984Z,99338.96
2023-05-15T12:08:42.202Z,99338.67
2023-05-15T12:11:12.425Z,99333.17
2023-05-15T12:13:42.419Z,99336.29
2023-05-15T12:16:11.347Z,99326.29
2023-05-15T12:18:40.571Z,99329.23
2023-05-15T12:21:11.311Z,99319.35
2023-05-15T12:23:40.637Z,99323.14
2023-05-15T12:26:10.351Z,99321.39
2023-05-15T12:28:39.226Z,99313.77
2023-05-15T12:31:10.931Z,99316.12
2023-05-15T12:33:39.982Z,99307.21
2023-05-15T12:36:12.537Z,99302.34
2023-05-15T12:38:43.723Z,99300.98
2023-05-15T12:41:14.555Z,99294.70
2023-05-15T12:43:43.263Z,99298.66
2023-05-15T12:46:14.019Z,99301.31
2023-05-15T12:48:42.885Z,99290.58
2023-05-15T12:51:14.148Z,99291.70
2023-05-15T12:53:44.577Z,99289.90
2023-05-15T12:56:17.952Z,99287.15
2023-05-15T12:58:48.110Z,99287.30
2023-05-15T13:01:18.455Z,99283.34
2023-05-15T13:03:50.044Z,99281.16
2023-05-15T13:06:20.177Z,99274.20
2023-05-15T13:08:49.430Z,99268.16
2023-05-15T13:11:20.407Z,99262.29
2023-05-15T13:13:52.124Z,99248.73
2023-05-15T13:16:25.201Z,99253.50
2023-05-15T13:18:58.972Z,99239.73
2023-05-15T13:21:28.166Z,99239.11
2023-05-15T13:23:58.679Z,99241.30
2023-05-15T13:26:27.997Z,99242.33
2023-05-15T13:28:58.061Z,99239.27
2023-05-15T13:31:28.805Z,99238.25
2023-05-15T13:33:59.908Z,99235.00
2023-05-15T13:36:29.721Z,99230.00
2023-05-15T13:38:59.006Z,99231.79
2023-05-15T13:41:29.391Z,99223.28
2023-05-15T13:44:00.631Z,99218.94
2023-05-15T13:46:30.791Z,99209.85
2023-05-15T13:48:59.762Z,99211.96
2023-05-15T13:51:31.968Z,99210.59
2023-05-15T13:54:00.830Z,99208.42
2023-05-15T13:56:30.395Z,99205.05
2023-05-15T13:58:59.311Z,99205.27
2023-05-15T14:01:30.000Z,99200.02
2023-05-15T14:04:00.212Z,99199.27
2023-05-15T14:06:34.402Z,99200.06
2023-05-15T14:09:05.037Z,99203.31
2023-05-15T14:11:36.332Z,99203.70
2023-05-15T14:14:06.816Z,99200.38
2023-05-15T14:16:36.479Z,99198.98
2023-05-15T14:19:06.003Z,99198.34
2023-05-15T14:21:36.191Z,99192.77
2023-05-15T14:24:08.120Z,99193.81
2023-05-15T14:26:41.621Z,99186.22
2023-05-15T14:29:10.975Z,99184.83
2023-05-15T14:31:43.212Z,99184.77
2023-05-15T14:34:12.152Z,99187.69
2023-05-15T14:36:41.704Z,99181.13
2023-05-15T14:39:10.495Z,99181.33
2023-05-15T14:41:41.320Z,99180.54
2023-05-15T14:44:11.471Z,99180.79
2023-05-15T14:46:42.565Z,99176.55
2023-05-15T14:49:11.465Z,99175.72
2023-05-15T14:51:41.990Z,99176.13
2023-05-15T14:54:12.456Z,99176.41
2023-05-15T14:56:41.260Z,99171.58
2023-05-15T14:59:12.658Z,99172.79
2023-05-15T15:01:41.812Z,99170.38
2023-05-15T15:04:10.671Z,99164.77
2023-05-15T15:06:39.564Z,99166.55
2023-05-15T15:09:10.559Z,99157.89
2023-05-15T15:11:41.202Z,99157.42
2023-05-15T15:14:12.879Z,99155.41
2023-05-15T15:16:46.913Z,99153.38
2023-05-15T15:19:19.000Z,99148.81
2023-05-15T15:21:50.565Z,99145.95
2023-05-15T15:24:20.588Z,99144.63
2023-05-15T15:26:50.728Z,99144.00
2023-05-15T15:29:20.410Z,99139.21
2023-05-15T15:32:20.378Z,99135.43
2023-05-15T15:34:50.887Z,99137.77
2023-05-15T15:37:19.784Z,99132.05
2023-05-15T15:39:48.621Z,99130.67
2023-05-15T15:42:17.416Z,99123.75
2023-05-15T15:44:46.327Z,99124.30
2023-05-15T15:47:16.515Z,99122.79
2023-05-15T15:49:45.326Z,99124.70
2023-05-15T15:52:16.060Z,99120.29
2023-05-15T15:57:41.644Z,99126.50
2023-05-15T16:00:12.148Z,99124.27
2023-05-15T16:02:43.223Z,99120.73
2023-05-15T16:05:13.831Z,99114.12
2023-05-15T16:07:49.779Z,99108.08
2023-05-15T16:10:18.618Z,99104.36
2023-05-15T16:12:48.436Z,99101.45
2023-05-15T16:15:23.436Z,99103.66
2023-05-15T16:17:54.970Z,99102.89
2023-05-15T16:20:25.034Z,99107.66
2023-05-15T16:22:55.745Z,99106.60
2023-05-15T16:25:25.553Z,99104.77
2023-05-15T16:27:54.838Z,99107.70
2023-05-15T16:30:30.588Z,99106.59
2023-05-15T16:33:09.517Z,99106.65
2023-05-15T16:35:39.683Z,99102.73
2023-05-15T16:38:09.689Z,99104.60
2023-05-15T16:40:39.445Z,99101.70
2023-05-15T16:43:09.144Z,99100.32
2023-05-15T16:45:38.178Z,99099.12
2023-05-15T16:48:07.590Z,99093.83
2023-05-15T16:50:38.128Z,99092.08
2023-05-15T16:53:08.250Z,99097.14
2023-05-15T16:55:38.904Z,99091.79
2023-05-15T16:58:07.625Z,99086.77
2023-05-15T17:00:40.086Z,99089.79
2023-05-15T17:03:09.166Z,99082.28
2023-05-15T17:05:38.047Z,99075.21
2023-05-15T17:08:06.927Z,99086.29
2023-05-15T17:10:36.425Z,99083.55
2023-05-15T17:13:05.682Z,99077.73
2023-05-15T17:15:35.212Z,99078.58
2023-05-15T17:18:06.541Z,99075.92
2023-05-15T17:20:36.381Z,99074.84
2023-05-15T17:23:07.052Z,99064.33
2023-05-15T17:25:36.109Z,99071.98
2023-05-15T17:28:06.083Z,99078.60
2023-05-15T17:30:39.850Z,99080.05
2023-05-15T17:33:10.945Z,99081.66
2023-05-15T17:35:40.128Z,99074.29
2023-05-15T17:38:09.673Z,99083.23
2023-05-15T17:40:38.928Z,99087.77
2023-05-15T17:43:11.232Z,99093.80
2023-05-15T17:45:39.997Z,99090.84
2023-05-15T17:48:09.284Z,99093.95
2023-05-15T17:50:40.226Z,99093.39
2023-05-15T17:53:12.613Z,99085.81
2023-05-15T17:55:44.035Z,99083.71
2023-05-15T17:58:14.130Z,99079.36
2023-05-15T18:00:43.468Z,99081.88
2023-05-15T18:03:12.278Z,99085.81
2023-05-15T18:05:42.796Z,99091.21
2023-05-15T18:08:12.454Z,99097.64
2023-05-15T18:10:43.770Z,99094.87
2023-05-15T18:13:12.948Z,99101.81
2023-05-15T18:15:44.072Z,99106.94
2023-05-15T18:18:13.839Z,99098.98
2023-05-15T18:20:43.014Z,99099.43
2023-05-15T18:23:13.828Z,99101.19
2023-05-15T18:25:43.557Z,99093.77
2023-05-15T18:28:13.586Z,99088.82
2023-05-15T18:30:47.553Z,99091.58
2023-05-15T18:33:18.948Z,99087.63
2023-05-15T18:35:48.068Z,99093.98
2023-05-15T18:38:19.477Z,99092.11
2023-05-15T18:40:49.006Z,99096.27
2023-05-15T18:43:18.256Z,99092.69
2023-05-15T18:45:49.105Z,99096.00
2023-05-15T18:48:18.851Z,99102.28
2023-05-15T18:50:49.256Z,99100.25
2023-05-15T18:53:19.292Z,99100.88
2023-05-15T18:55:49.650Z,99102.83
2023-05-15T18:58:20.699Z,99099.67
2023-05-15T19:00:51.821Z,99103.33
2023-05-15T19:03:23.726Z,99109.98
2023-05-15T19:05:52.601Z,99110.73
2023-05-15T19:08:23.400Z,99105.90
2023-05-15T19:10:53.602Z,99102.72
2023-05-15T19:13:26.771Z,99100.96
2023-05-15T19:15:55.886Z,99108.10
2023-05-15T19:18:26.113Z,99104.40
2023-05-15T19:20:57.103Z,99095.00
2023-05-15T19:23:28.000Z,99095.55
2023-05-15T19:25:56.909Z,99098.05
2023-05-15T19:28:25.977Z,99087.98
2023-05-15T19:31:31.519Z,99092.98
2023-05-15T19:34:02.487Z,99092.45
2023-05-15T19:36:33.742Z,99095.52
2023-05-15T19:39:05.062Z,99099.85
2023-05-15T19:41:36.678Z,99100.60
2023-05-15T19:44:07.708Z,99098.23
2023-05-15T19:46:36.937Z,99098.17
2023-05-15T19:49:06.326Z,99108.14
2023-05-15T19:51:38.260Z,99107.66
2023-05-15T19:54:08.522Z,99106.44
2023-05-15T19:56:39.177Z,99102.64
2023-05-15T19:59:08.920Z,99108.54
2023-05-15T20:01:38.905Z,99105.94
2023-05-15T20:04:08.136Z,99109.24
2023-05-15T20:06:37.777Z,99104.09
2023-05-15T20:09:06.882Z,99101.02
2023-05-15T20:11:35.809Z,99104.30
2023-05-15T20:14:04.970Z,99101.53
2023-05-15T20:16:35.981Z,99104.52
2023-05-15T20:19:06.056Z,99109.79
2023-05-15T20:21:35.569Z,99108.48
2023-05-15T20:24:06.090Z,99102.73
2023-05-15T20:26:37.916Z,99098.70
2023-05-15T20:29:06.799Z,99095.10
2023-05-15T20:31:40.779Z,99093.81
2023-05-15T20:34:13.632Z,99093.84
2023-05-15T20:36:42.932Z,99100.20
2023-05-15T20:39:12.601Z,99100.64
2023-05-15T20:41:41.664Z,99102.69
2023-05-15T20:44:10.773Z,99101.73
2023-05-15T20:46:41.156Z,99097.06
2023-05-15T20:49:13.274Z,99095.88
2023-05-15T20:51:44.968Z,99095.73
2023-05-15T20:54:13.975Z,99093.55
2023-05-15T20:56:43.997Z,99087.09
2023-05-15T20:59:15.582Z,99088.39
2023-05-15T21:01:45.358Z,99090.31
2023-05-15T21:04:15.234Z,99089.91
2023-05-15T21:06:46.093Z,99088.69
2023-05-15T21:09:16.997Z,99092.67
2023-05-15T21:11:47.355Z,99088.77
2023-05-15T21:14:16.483Z,99085.06
2023-05-15T21:16:47.197Z,99085.79
2023-05-15T21:19:17.653Z,99086.75
2023-05-15T21:21:48.433Z,99082.91
2023-05-15T21:24:18.743Z,99085.50
2023-05-15T21:26:48.797Z,99082.01
2023-05-15T21:29:20.276Z,99078.63
2023-05-15T21:31:57.657Z,99084.52
2023-05-15T21:34:29.262Z,99084.50
2023-05-15T21:36:58.175Z,99086.27
2023-05-15T21:39:30.432Z,99083.77
2023-05-15T21:41:59.605Z,99077.66
2023-05-15T21:44:31.594Z,99074.86
2023-05-15T21:47:01.275Z,99070.66
2023-05-15T21:49:33.614Z,99074.19
2023-05-15T21:52:02.555Z,99078.66
2023-05-15T21:54:31.441Z,99078.89
2023-05-15T21:57:01.280Z,99079.11
2023-05-15T21:59:32.896Z,99074.52
2023-05-15T22:02:02.182Z,99072.95
2023-05-15T22:04:32.331Z,99075.73
2023-05-15T22:07:01.273Z,99074.52
2023-05-15T22:09:30.177Z,99080.11
2023-05-15T22:12:27.387Z,99080.45
2023-05-15T22:14:59.404Z,99085.70
2023-05-15T22:17:36.496Z,99083.84
2023-05-15T22:20:09.193Z,99084.81
2023-05-15T22:22:39.659Z,99083.67
2023-05-15T22:25:10.032Z,99087.92
2023-05-15T22:27:40.518Z,99086.04
2023-05-15T22:30:40.772Z,99085.05
2023-05-15T22:33:09.629Z,99083.38
2023-05-15T22:35:38.505Z,99081.08
2023-05-15T22:38:08.154Z,99086.41
2023-05-15T22:40:38.875Z,99084.05
2023-05-15T22:43:08.606Z,99080.02
2023-05-15T22:45:37.308Z,99080.17
2023-05-15T22:48:08.053Z,99086.52
2023-05-15T22:50:38.144Z,99085.75
2023-05-15T22:53:07.518Z,99087.23
2023-05-15T22:55:38.129Z,99081.27
2023-05-15T22:58:07.278Z,99079.11
2023-05-15T23:00:36.220Z,99079.54
2023-05-15T23:03:09.485Z,99081.20
2023-05-15T23:05:40.896Z,99082.11
2023-05-15T23:08:10.630Z,99083.19
2023-05-15T23:10:41.062Z,99085.43
2023-05-15T23:13:10.136Z,99089.45
2023-05-15T23:15:41.092Z,99089.48
2023-05-15T23:18:11.280Z,99089.69
2023-05-15T23:20:42.499Z,99092.55
2023-05-15T23:23:12.969Z,99089.65
2023-05-15T23:25:43.904Z,99085.69
2023-05-15T23:28:12.584Z,99092.45
2023-05-15T23:30:46.443Z,99094.27
2023-05-15T23:33:15.768Z,99092.00
2023-05-15T23:35:44.541Z,99092.80
2023-05-15T23:38:16.243Z,99089.64
2023-05-15T23:40:45.346Z,99092.17
2023-05-15T23:43:16.230Z,99087.90
2023-05-15T23:45:46.593Z,99083.89
2023-05-15T23:48:17.189Z,99081.64
2023-05-15T23:50:47.114Z,99079.90
2023-05-15T23:53:17.837Z,99084.54
2023-05-15T23:55:46.919Z,99080.76
2023-05-15T23:58:16.197Z,99082.19
